Time;durP1;ratioP1;P1;durP2;ratioP2;P2;SDS_P1;SDS_P2;PMS_P1;PMS_P2;Temp;Humidity;BMP_temperature;BMP_pressure;BME280_temperature;BME280_humidity;BME280_pressure;Samples;Min_cycle;Max_cycle;Signal;HPM_P1;HPM_P2
2022/08/24 00:01:19;;;;;;;59.08;43.20;;;;;;;;;;5036706;28;20386;-75
2022/08/24 00:03:46;;;;;;;55.00;43.92;;;;;;;;;;5002980;28;20053;-77
2022/08/24 00:06:15;;;;;;;56.50;43.45;;;;;;;;;;5036431;28;20132;-75
2022/08/24 00:08:43;;;;;;;56.03;43.05;;;;;;;;;;5035841;28;20042;-77
2022/08/24 00:11:09;;;;;;;53.63;44.65;;;;;;;;;;5035969;28;20528;-77
2022/08/24 00:13:36;;;;;;;;;;;;;;;;;;5036351;28;20056;-77
2022/08/24 00:16:03;;;;;;;53.80;42.53;;;;;;;;;;5035796;28;19927;-76
2022/08/24 00:18:29;;;;;;;54.08;42.80;;;;;;;;;;5035776;28;20128;-77
2022/08/24 00:20:55;;;;;;;;;;;;;;;;;;5036697;28;20048;-75
2022/08/24 00:23:21;;;;;;;53.53;40.10;;;;;;;;;;5036187;28;20281;-74
2022/08/24 00:25:47;;;;;;;;;;;;;;;;;;5035999;28;20061;-76
2022/08/24 00:28:14;;;;;;;52.53;40.88;;;;;;;;;;5035948;28;19928;-77
2022/08/24 00:30:40;;;;;;;54.10;41.67;;;;;;;;;;5035409;28;20493;-77
2022/08/24 00:33:07;;;;;;;;;;;;;;;;;;5036557;28;20138;-77
2022/08/24 00:35:33;;;;;;;48.58;39.38;;;;;;;;;;5035191;28;19971;-78
2022/08/24 00:37:59;;;;;;;;;;;;;;;;;;5018630;28;20543;-77
2022/08/24 00:40:45;;;;;;;50.30;38.80;;;;;;;;;;5035062;28;19920;-75
2022/08/24 00:43:11;;;;;;;53.55;38.47;;;;;;;;;;5035973;28;20132;-77
2022/08/24 00:45:42;;;;;;;45.45;38.85;;;;;;;;;;5035004;28;20474;-77
2022/08/24 00:48:13;;;;;;;48.70;38.42;;;;;;;;;;5035425;28;20474;-77
2022/08/24 00:51:05;;;;;;;46.85;38.42;;;;;;;;;;5034575;28;20478;-77
2022/08/24 00:53:36;;;;;;;48.38;39.20;;;;;;;;;;5030777;28;20502;-77
2022/08/24 00:56:05;;;;;;;48.03;37.28;;;;;;;;;;5036616;28;20085;-78
2022/08/24 00:58:37;;;;;;;48.88;38.20;;;;;;;;;;5019172;28;20045;-76
2022/08/24 01:01:05;;;;;;;47.72;37.70;;;;;;;;;;5017425;28;20103;-76
2022/08/24 01:03:31;;;;;;;47.60;37.65;;;;;;;;;;5034890;28;20461;-76
2022/08/24 01:05:57;;;;;;;44.17;34.33;;;;;;;;;;5034624;28;20056;-77
2022/08/24 01:08:24;;;;;;;47.95;37.78;;;;;;;;;;5017165;28;20441;-76
2022/08/24 01:10:51;;;;;;;46.83;36.97;;;;;;;;;;5035045;28;20049;-76
2022/08/24 01:13:19;;;;;;;47.42;36.33;;;;;;;;;;5035341;28;20081;-75
2022/08/24 01:15:47;;;;;;;47.75;36.03;;;;;;;;;;5035035;28;20054;-75
2022/08/24 01:21:12;;;;;;;46.28;36.72;;;;;;;;;;5035485;28;20072;-76
2022/08/24 01:23:38;;;;;;;44.20;35.03;;;;;;;;;;5034497;28;20095;-76
2022/08/24 01:26:04;;;;;;;;;;;;;;;;;;5034786;28;20501;-77
2022/08/24 01:28:30;;;;;;;49.15;38.70;;;;;;;;;;5034228;28;19921;-74
2022/08/24 01:30:57;;;;;;;50.80;37.88;;;;;;;;;;5034144;28;20065;-76
2022/08/24 01:33:28;;;;;;;48.00;36.63;;;;;;;;;;5034468;28;20403;-77
2022/08/24 01:35:57;;;;;;;47.53;37.20;;;;;;;;;;5033865;28;20560;-77
2022/08/24 01:38:23;;;;;;;46.47;37.45;;;;;;;;;;5034563;28;20570;-77
2022/08/24 01:40:52;;;;;;;49.20;37.45;;;;;;;;;;5016472;28;20081;-75
2022/08/24 01:43:18;;;;;;;48.80;39.00;;;;;;;;;;5034409;28;20048;-78
2022/08/24 01:45:44;;;;;;;;;;;;;;;;;;5034408;28;20084;-77
2022/08/24 01:48:10;;;;;;;46.17;36.60;;;;;;;;;;5034040;28;19986;-77
2022/08/24 01:50:37;;;;;;;47.42;37.00;;;;;;;;;;5016453;28;20390;-76
2022/08/24 01:53:04;;;;;;;46.88;37.92;;;;;;;;;;5034619;28;20359;-76
2022/08/24 01:55:31;;;;;;;48.83;38.63;;;;;;;;;;5034239;28;20071;-77
2022/08/24 01:58:00;;;;;;;46.72;36.67;;;;;;;;;;5034026;28;20068;-74
2022/08/24 02:00:27;;;;;;;44.35;36.28;;;;;;;;;;5033563;28;20559;-76
2022/08/24 02:02:54;;;;;;;46.75;37.08;;;;;;;;;;5033712;28;20049;-76
2022/08/24 02:05:21;;;;;;;49.33;38.75;;;;;;;;;;5033929;28;20049;-77
2022/08/24 02:07:47;;;;;;;48.33;39.33;;;;;;;;;;5033682;28;20128;-75
2022/08/24 02:10:14;;;;;;;49.03;39.50;;;;;;;;;;5034216;28;20061;-76
2022/08/24 02:12:41;;;;;;;53.22;40.00;;;;;;;;;;5033591;28;20043;-76
2022/08/24 02:15:09;;;;;;;50.65;38.35;;;;;;;;;;5033706;28;20053;-76
2022/08/24 02:17:36;;;;;;;45.78;36.65;;;;;;;;;;5034521;28;20377;-75
2022/08/24 02:20:03;;;;;;;46.75;38.25;;;;;;;;;;5033768;28;20054;-77
2022/08/24 02:22:29;;;;;;;49.58;39.33;;;;;;;;;;5016305;28;20053;-76
2022/08/24 02:24:56;;;;;;;;;;;;;;;;;;5016757;28;20049;-77
2022/08/24 02:27:22;;;;;;;46.85;37.10;;;;;;;;;;5016171;28;19928;-76
2022/08/24 02:29:48;;;;;;;46.47;38.38;;;;;;;;;;5033694;28;20061;-76
2022/08/24 02:32:15;;;;;;;49.38;39.60;;;;;;;;;;5034106;28;20045;-77
2022/08/24 02:34:42;;;;;;;48.38;38.35;;;;;;;;;;5033592;28;20405;-76
2022/08/24 02:37:09;;;;;;;45.97;36.92;;;;;;;;;;5033690;28;20053;-76
2022/08/24 02:39:35;;;;;;;;;;;;;;;;;;5016718;28;20064;-77
2022/08/24 02:42:01;;;;;;;44.53;35.53;;;;;;;;;;5000203;28;19920;-78
2022/08/24 02:44:28;;;;;;;;;;;;;;;;;;5033863;28;20578;-77
2022/08/24 02:46:54;;;;;;;44.00;36.03;;;;;;;;;;5033702;28;20389;-76
2022/08/24 02:49:21;;;;;;;;;;;;;;;;;;5000231;28;20104;-77
2022/08/24 02:51:48;;;;;;;45.28;35.75;;;;;;;;;;5033411;28;19924;-76
2022/08/24 02:54:18;;;;;;;46.40;37.53;;;;;;;;;;5016356;28;20104;-77
2022/08/24 02:56:44;;;;;;;48.60;39.58;;;;;;;;;;5034372;28;20140;-77
2022/08/24 02:59:11;;;;;;;48.22;37.60;;;;;;;;;;5033653;28;20057;-76
2022/08/24 03:01:37;;;;;;;47.97;37.35;;;;;;;;;;5033543;28;20045;-77
2022/08/24 03:04:03;;;;;;;47.05;36.58;;;;;;;;;;5033349;28;20051;-76
2022/08/24 03:06:29;;;;;;;;;;;;;;;;;;5033650;28;20049;-77
2022/08/24 03:08:55;;;;;;;45.42;37.88;;;;;;;;;;5032650;28;19928;-76
2022/08/24 03:11:21;;;;;;;;;;;;;;;;;;5033637;28;20091;-77
2022/08/24 03:13:48;;;;;;;46.80;37.72;;;;;;;;;;5035574;28;19928;-77
2022/08/24 03:16:15;;;;;;;44.95;37.65;;;;;;;;;;5036873;28;20053;-76
2022/08/24 03:18:42;;;;;;;49.22;36.30;;;;;;;;;;5036717;28;20060;-76
2022/08/24 03:21:09;;;;;;;48.88;37.45;;;;;;;;;;5018526;28;20489;-76
2022/08/24 03:23:35;;;;;;;46.90;36.83;;;;;;;;;;5036455;28;20125;-77
2022/08/24 03:26:01;;;;;;;48.65;37.50;;;;;;;;;;5019456;28;20053;-77
2022/08/24 03:28:28;;;;;;;49.55;38.90;;;;;;;;;;5036711;28;20501;-77
2022/08/24 03:30:54;;;;;;;47.53;36.20;;;;;;;;;;5019562;28;20077;-77
2022/08/24 03:33:20;;;;;;;;;;;;;;;;;;5037036;28;20056;-78
2022/08/24 03:35:47;;;;;;;45.50;36.13;;;;;;;;;;5018830;28;20011;-75
2022/08/24 03:38:13;;;;;;;42.95;34.03;;;;;;;;;;5036432;28;20091;-77
2022/08/24 03:40:40;;;;;;;48.10;36.25;;;;;;;;;;5003024;28;20366;-76
2022/08/24 03:43:06;;;;;;;47.72;35.75;;;;;;;;;;5036188;28;20048;-77
2022/08/24 03:45:32;;;;;;;43.70;34.70;;;;;;;;;;5018870;28;20508;-77
2022/08/24 03:47:58;;;;;;;;;;;;;;;;;;5019422;28;20049;-77
2022/08/24 03:50:25;;;;;;;42.22;35.75;;;;;;;;;;5036992;28;20264;-77
2022/08/24 03:52:52;;;;;;;41.25;34.20;;;;;;;;;;5018646;28;20064;-76
2022/08/24 03:55:19;;;;;;;46.35;36.00;;;;;;;;;;5036509;28;20148;-77
2022/08/24 03:57:45;;;;;;;45.10;34.33;;;;;;;;;;5018987;28;20050;-77
2022/08/24 04:00:11;;;;;;;43.70;34.17;;;;;;;;;;5036143;28;20103;-77
2022/08/24 04:02:38;;;;;;;45.80;35.63;;;;;;;;;;5036657;28;20068;-76
2022/08/24 04:05:06;;;;;;;43.35;36.08;;;;;;;;;;5036742;28;20053;-77
2022/08/24 04:07:32;;;;;;;43.38;34.55;;;;;;;;;;5018253;28;20119;-77
2022/08/24 04:09:58;;;;;;;39.38;32.70;;;;;;;;;;5018639;28;20444;-76
2022/08/24 04:12:24;;;;;;;;;;;;;;;;;;5036331;28;20503;-78
2022/08/24 04:14:56;;;;;;;45.55;35.40;;;;;;;;;;5018646;28;19968;-75
2022/08/24 04:17:22;;;;;;;41.28;33.70;;;;;;;;;;5035853;28;20077;-77
2022/08/24 04:19:58;;;;;;;40.08;32.78;;;;;;;;;;5035576;28;20406;-77
2022/08/24 04:22:25;;;;;;;44.85;35.28;;;;;;;;;;5017692;28;20054;-77
2022/08/24 04:24:51;;;;;;;41.95;34.75;;;;;;;;;;5034168;28;20045;-75
2022/08/24 04:27:17;;;;;;;;;;;;;;;;;;5018110;28;20537;-76
2022/08/24 04:29:43;;;;;;;39.25;34.10;;;;;;;;;;5017344;28;20008;-77
2022/08/24 04:32:09;;;;;;;;;;;;;;;;;;5035938;28;20050;-76
2022/08/24 04:34:35;;;;;;;46.13;35.65;;;;;;;;;;5035357;28;19928;-77
2022/08/24 04:37:01;;;;;;;43.75;35.95;;;;;;;;;;5017483;28;20049;-77
2022/08/24 04:39:27;;;;;;;;;;;;;;;;;;5035525;28;20045;-76
2022/08/24 04:41:55;;;;;;;43.22;34.17;;;;;;;;;;5035117;28;19928;-74
2022/08/24 04:44:21;;;;;;;42.03;34.00;;;;;;;;;;5017899;28;20111;-76
2022/08/24 04:46:47;;;;;;;41.88;34.83;;;;;;;;;;5035457;28;20430;-77
2022/08/24 04:49:13;;;;;;;;;;;;;;;;;;5034977;28;20049;-76
2022/08/24 04:51:41;;;;;;;51.92;34.20;;;;;;;;;;5033590;28;19943;-77
2022/08/24 04:54:07;;;;;;;43.60;35.50;;;;;;;;;;5016839;28;20049;-76
2022/08/24 04:56:33;;;;;;;;;;;;;;;;;;5035104;28;20046;-77
2022/08/24 04:58:59;;;;;;;41.22;33.30;;;;;;;;;;5000826;28;19928;-76
2022/08/24 05:01:25;;;;;;;;;;;;;;;;;;5035114;28;20060;-76
2022/08/24 05:03:53;;;;;;;40.58;32.88;;;;;;;;;;5034665;28;20280;-76
2022/08/24 05:06:20;;;;;;;45.88;34.17;;;;;;;;;;5035571;28;20048;-76
2022/08/24 05:08:46;;;;;;;43.13;34.30;;;;;;;;;;5035261;28;20051;-76
2022/08/24 05:11:14;;;;;;;43.00;33.85;;;;;;;;;;5035110;28;20049;-76
2022/08/24 05:13:40;;;;;;;43.92;32.58;;;;;;;;;;5017073;28;20491;-78
2022/08/24 05:16:10;;;;;;;40.03;32.95;;;;;;;;;;5034815;28;20084;-77
2022/08/24 05:18:37;;;;;;;41.17;33.72;;;;;;;;;;5034446;28;20377;-77
2022/08/24 05:21:06;;;;;;;41.28;33.08;;;;;;;;;;5000033;28;20544;-76
2022/08/24 05:23:32;;;;;;;41.47;33.17;;;;;;;;;;5033902;28;20561;-77
2022/08/24 05:25:58;;;;;;;;;;;;;;;;;;5017376;28;20512;-75
2022/08/24 05:28:24;;;;;;;41.40;32.90;;;;;;;;;;5034006;28;19921;-78
2022/08/24 05:30:50;;;;;;;45.25;33.70;;;;;;;;;;5017031;28;20378;-78
2022/08/24 05:33:16;;;;;;;42.92;33.50;;;;;;;;;;5034803;28;20052;-77
2022/08/24 05:35:42;;;;;;;;;;;;;;;;;;5034443;28;20045;-77
2022/08/24 05:38:08;;;;;;;41.42;32.08;;;;;;;;;;5034350;28;19928;-78
2022/08/24 05:40:36;;;;;;;39.58;31.85;;;;;;;;;;5034480;28;20106;-78
2022/08/24 05:43:02;;;;;;;40.47;32.17;;;;;;;;;;5034227;28;20045;-76
2022/08/24 05:45:28;;;;;;;;;;;;;;;;;;5017832;28;20064;-78
2022/08/24 05:47:54;;;;;;;39.37;33.40;;;;;;;;;;5016967;28;19921;-78
2022/08/24 05:50:23;;;;;;;39.70;31.33;;;;;;;;;;5034571;28;20053;-81
2022/08/24 05:52:49;;;;;;;41.95;32.20;;;;;;;;;;5034209;28;20446;-81
2022/08/24 05:55:15;;;;;;;40.78;31.23;;;;;;;;;;5034662;28;20046;-79
2022/08/24 05:57:42;;;;;;;;;;;;;;;;;;5034953;28;20049;-76
2022/08/24 06:00:10;;;;;;;38.00;31.80;;;;;;;;;;5034774;28;19925;-80
2022/08/24 06:02:36;;;;;;;44.72;35.17;;;;;;;;;;5034596;28;20068;-79
2022/08/24 06:05:02;;;;;;;;;;;;;;;;;;5033967;28;20532;-80
2022/08/24 06:07:28;;;;;;;48.10;41.03;;;;;;;;;;5034583;28;19967;-80
2022/08/24 06:09:54;;;;;;;54.40;40.72;;;;;;;;;;5034224;28;20080;-78
2022/08/24 06:12:20;;;;;;;50.72;38.58;;;;;;;;;;5034187;28;20064;-77
2022/08/24 06:14:46;;;;;;;;;;;;;;;;;;5034149;28;20099;-76
2022/08/24 06:17:12;;;;;;;46.42;36.50;;;;;;;;;;5033856;28;19968;-78
2022/08/24 06:19:39;;;;;;;48.63;37.70;;;;;;;;;;5033875;28;20513;-79
2022/08/24 06:22:06;;;;;;;46.55;36.15;;;;;;;;;;5033991;28;20080;-79
2022/08/24 06:27:20;;;;;;;47.80;35.55;;;;;;;;;;5034698;28;20052;-79
2022/08/24 06:29:46;;;;;;;46.53;36.05;;;;;;;;;;5033880;28;20053;-79
2022/08/24 06:32:12;;;;;;;48.33;36.70;;;;;;;;;;5034352;28;20100;-80
2022/08/24 06:34:38;;;;;;;;;;;;;;;;;;5034170;28;20482;-80
2022/08/24 06:37:06;;;;;;;40.72;32.90;;;;;;;;;;5032891;28;19928;-78
2022/08/24 06:39:32;;;;;;;37.13;29.35;;;;;;;;;;5016665;28;20053;-78
2022/08/24 06:41:58;;;;;;;;;;;;;;;;;;5034579;28;20053;-78
2022/08/24 06:44:24;;;;;;;42.20;31.92;;;;;;;;;;5033893;28;19928;-83
2022/08/24 06:46:51;;;;;;;;;;;;;;;;;;5034765;28;20050;-78
2022/08/24 06:49:17;;;;;;;39.60;31.20;;;;;;;;;;5037931;28;19921;-81
2022/08/24 06:51:44;;;;;;;38.63;28.17;;;;;;;;;;5038016;28;20049;-82
2022/08/24 06:54:10;;;;;;;32.72;23.60;;;;;;;;;;5037981;28;20045;-77
2022/08/24 06:56:37;;;;;;;30.48;22.63;;;;;;;;;;5037806;28;20080;-75
2022/08/24 06:59:03;;;;;;;29.67;20.08;;;;;;;;;;5037644;28;20050;-75
2022/08/24 07:01:32;;;;;;;26.27;15.27;;;;;;;;;;5037140;28;20358;-73
2022/08/24 07:03:58;;;;;;;19.77;14.40;;;;;;;;;;5037223;28;20057;-74
2022/08/24 07:06:24;;;;;;;;;;;;;;;;;;5020085;28;20045;-73
2022/08/24 07:08:50;;;;;;;20.73;14.38;;;;;;;;;;5037154;28;19927;-75
2022/08/24 07:11:17;;;;;;;20.02;14.32;;;;;;;;;;5036077;28;20054;-73
2022/08/24 07:13:47;;;;;;;24.10;15.02;;;;;;;;;;5019970;28;20386;-74
2022/08/24 07:16:13;;;;;;;21.05;14.45;;;;;;;;;;5036939;28;20049;-73
2022/08/24 07:18:40;;;;;;;21.10;13.52;;;;;;;;;;5037370;28;20049;-74
2022/08/24 07:21:07;;;;;;;22.70;13.60;;;;;;;;;;5019005;28;20143;-74
2022/08/24 07:23:34;;;;;;;22.25;14.65;;;;;;;;;;5036862;28;20443;-74
2022/08/24 07:26:11;;;;;;;19.00;12.20;;;;;;;;;;5036469;28;20093;-75
2022/08/24 07:28:37;;;;;;;22.17;13.95;;;;;;;;;;5019116;28;20050;-74
2022/08/24 07:31:04;;;;;;;19.95;13.60;;;;;;;;;;5036038;28;20490;-75
2022/08/24 07:33:30;;;;;;;18.02;11.80;;;;;;;;;;5036959;28;20096;-75
2022/08/24 07:35:59;;;;;;;21.48;12.80;;;;;;;;;;5019461;28;20103;-75
2022/08/24 07:38:26;;;;;;;26.45;13.10;;;;;;;;;;5036706;28;20132;-76
2022/08/24 07:40:52;;;;;;;21.42;12.70;;;;;;;;;;5036407;28;20092;-75
2022/08/24 07:43:22;;;;;;;17.98;11.57;;;;;;;;;;5036623;28;20456;-76
2022/08/24 07:45:50;;;;;;;15.60;9.60;;;;;;;;;;5036252;28;20128;-76
2022/08/24 07:48:16;;;;;;;18.92;11.50;;;;;;;;;;5036228;28;20057;-75
2022/08/24 07:50:43;;;;;;;19.35;10.75;;;;;;;;;;5036338;28;20049;-74
2022/08/24 07:53:10;;;;;;;21.10;10.55;;;;;;;;;;5035691;28;20462;-76
2022/08/24 07:55:36;;;;;;;18.52;9.70;;;;;;;;;;5002191;28;20057;-74
2022/08/24 07:58:02;;;;;;;18.77;10.48;;;;;;;;;;5035901;28;20390;-76
2022/08/24 08:00:28;;;;;;;19.70;10.68;;;;;;;;;;5036606;28;20046;-75
2022/08/24 08:02:57;;;;;;;17.85;11.27;;;;;;;;;;5018652;28;20048;-75
2022/08/24 08:05:23;;;;;;;;;;;;;;;;;;5036058;28;20049;-73
2022/08/24 08:07:50;;;;;;;16.55;9.30;;;;;;;;;;5036625;28;19921;-75
2022/08/24 08:10:16;;;;;;;18.80;8.85;;;;;;;;;;5036525;28;20049;-75
2022/08/24 08:12:42;;;;;;;16.23;8.57;;;;;;;;;;5035823;28;20041;-75
2022/08/24 08:15:09;;;;;;;16.90;9.23;;;;;;;;;;5035916;28;20398;-75
2022/08/24 08:17:36;;;;;;;16.25;9.57;;;;;;;;;;5035579;28;20142;-72
2022/08/24 08:20:07;;;;;;;17.33;10.05;;;;;;;;;;5035417;28;20055;-75
2022/08/24 08:25:18;;;;;;;18.73;8.95;;;;;;;;;;5018797;28;20061;-74
2022/08/24 08:27:45;;;;;;;16.90;10.60;;;;;;;;;;5002036;28;20493;-74
2022/08/24 08:30:12;;;;;;;15.27;9.23;;;;;;;;;;5035947;28;20049;-74
2022/08/24 08:32:38;;;;;;;16.13;9.27;;;;;;;;;;5017497;28;20055;-74
2022/08/24 08:35:04;;;;;;;17.80;9.35;;;;;;;;;;5035155;28;20095;-74
2022/08/24 08:37:30;;;;;;;17.38;9.63;;;;;;;;;;5017704;28;20053;-75
2022/08/24 08:39:57;;;;;;;15.18;9.10;;;;;;;;;;5034593;28;20071;-74
2022/08/24 08:42:32;;;;;;;18.73;10.73;;;;;;;;;;5035844;28;20037;-74
2022/08/24 08:45:08;;;;;;;19.80;10.30;;;;;;;;;;5018401;28;20089;-75
2022/08/24 08:47:38;;;;;;;19.48;9.43;;;;;;;;;;5035253;28;20068;-73
2022/08/24 08:50:07;;;;;;;18.35;9.75;;;;;;;;;;5034850;28;20137;-73
2022/08/24 08:52:33;;;;;;;18.63;9.55;;;;;;;;;;5034552;28;20045;-75
2022/08/24 08:55:05;;;;;;;19.17;8.88;;;;;;;;;;5034753;28;20132;-74
2022/08/24 08:57:39;;;;;;;19.98;10.40;;;;;;;;;;5035184;28;20449;-81
2022/08/24 09:00:10;;;;;;;17.08;9.90;;;;;;;;;;5035596;28;20071;-81
2022/08/24 09:02:55;;;;;;;20.25;10.15;;;;;;;;;;5034611;28;20083;-76
2022/08/24 09:05:40;;;;;;;16.60;9.13;;;;;;;;;;5035036;28;20152;-79
2022/08/24 09:08:07;;;;;;;15.75;9.38;;;;;;;;;;5016854;28;20477;-78
2022/08/24 09:10:48;;;;;;;16.88;9.10;;;;;;;;;;5034084;28;20050;-73
2022/08/24 09:13:14;;;;;;;31.90;9.32;;;;;;;;;;5034647;28;20045;-74
2022/08/24 09:15:40;;;;;;;;;;;;;;;;;;5035411;28;20135;-78
2022/08/24 09:18:12;;;;;;;20.85;8.73;;;;;;;;;;5034418;28;19921;-74
2022/08/24 09:20:41;;;;;;;22.25;8.57;;;;;;;;;;5034412;28;20057;-74
2022/08/24 09:23:14;;;;;;;31.90;10.10;;;;;;;;;;5033959;28;20144;-73
2022/08/24 09:25:40;;;;;;;19.70;8.45;;;;;;;;;;5034931;28;20041;-75
2022/08/24 09:28:12;;;;;;;18.83;8.15;;;;;;;;;;5017448;28;20408;-73
2022/08/24 09:30:44;;;;;;;12.98;7.60;;;;;;;;;;5016103;28;20053;-75
2022/08/24 09:33:13;;;;;;;16.33;7.22;;;;;;;;;;5016233;28;20498;-75
2022/08/24 09:35:58;;;;;;;18.35;8.55;;;;;;;;;;5016359;28;20064;-79
2022/08/24 09:38:43;;;;;;;14.70;6.57;;;;;;;;;;5033944;28;20208;-78
2022/08/24 09:41:23;;;;;;;15.50;8.23;;;;;;;;;;5033817;28;20042;-71
2022/08/24 09:44:07;;;;;;;15.75;7.95;;;;;;;;;;5016329;28;20128;-83
2022/08/24 09:46:43;;;;;;;14.20;7.97;;;;;;;;;;5033795;28;20397;-72
2022/08/24 09:49:28;;;;;;;14.32;7.65;;;;;;;;;;5034208;28;20053;-75
2022/08/24 09:52:12;;;;;;;17.13;6.95;;;;;;;;;;5033740;28;20045;-75
2022/08/24 09:54:50;;;;;;;14.10;6.75;;;;;;;;;;5015707;28;20111;-70
2022/08/24 09:57:22;;;;;;;17.05;8.52;;;;;;;;;;5033342;28;20520;-72
2022/08/24 10:00:07;;;;;;;14.02;6.90;;;;;;;;;;5034095;28;20057;-74
2022/08/24 10:02:45;;;;;;;17.02;5.90;;;;;;;;;;5033497;28;20049;-73
2022/08/24 10:05:16;;;;;;;12.48;6.82;;;;;;;;;;5016399;28;20474;-75
2022/08/24 10:07:49;;;;;;;13.98;7.25;;;;;;;;;;5033590;28;20052;-76
2022/08/24 10:10:21;;;;;;;15.60;5.90;;;;;;;;;;5033628;28;20049;-78
2022/08/24 10:12:58;;;;;;;12.65;6.28;;;;;;;;;;5033381;28;20098;-71
2022/08/24 10:15:31;;;;;;;15.57;6.38;;;;;;;;;;5033222;28;20545;-75
2022/08/24 10:18:16;;;;;;;12.98;6.07;;;;;;;;;;5015535;28;20111;-67
2022/08/24 10:20:51;;;;;;;11.15;5.80;;;;;;;;;;5033340;28;20136;-66
2022/08/24 10:23:26;;;;;;;12.38;5.40;;;;;;;;;;5035754;28;20392;-71
2022/08/24 10:25:55;;;;;;;13.32;6.32;;;;;;;;;;5037438;28;20111;-76
2022/08/24 10:28:21;;;;;;;11.80;6.13;;;;;;;;;;5037591;28;20084;-73
2022/08/24 10:30:56;;;;;;;18.30;5.53;;;;;;;;;;5037709;28;20099;-75
2022/08/24 10:33:24;;;;;;;11.45;5.30;;;;;;;;;;5037652;28;20496;-78
2022/08/24 10:35:53;;;;;;;12.40;5.43;;;;;;;;;;5037449;28;20128;-75
2022/08/24 10:41:22;;;;;;;13.68;5.22;;;;;;;;;;5020726;28;20138;-78
2022/08/24 10:44:07;;;;;;;14.52;5.43;;;;;;;;;;5037129;28;20056;-78
2022/08/24 10:46:33;;;;;;;12.25;6.07;;;;;;;;;;5020978;28;20042;-76
2022/08/24 10:49:11;;;;;;;11.57;4.75;;;;;;;;;;5019257;28;20049;-82
2022/08/24 10:51:38;;;;;;;11.85;4.95;;;;;;;;;;5036816;28;20088;-77
2022/08/24 10:54:05;;;;;;;12.68;5.47;;;;;;;;;;5037069;28;20049;-78
2022/08/24 10:56:56;;;;;;;12.05;4.50;;;;;;;;;;5036987;28;20052;-71
2022/08/24 10:59:24;;;;;;;11.98;4.20;;;;;;;;;;5019447;28;20124;-81
2022/08/24 11:02:19;;;;;;;14.10;4.10;;;;;;;;;;5036870;28;20041;-79
2022/08/24 11:04:55;;;;;;;12.38;3.80;;;;;;;;;;5001878;28;20061;-72
2022/08/24 11:07:21;;;;;;;10.75;3.80;;;;;;;;;;5037214;28;20389;-76
2022/08/24 11:09:52;;;;;;;12.25;3.85;;;;;;;;;;5018220;28;20049;-78
2022/08/24 11:12:38;;;;;;;12.23;4.13;;;;;;;;;;5035974;28;20405;-74
2022/08/24 11:15:19;;;;;;;10.05;3.70;;;;;;;;;;5036491;28;20150;-76
2022/08/24 11:18:02;;;;;;;10.10;4.25;;;;;;;;;;5036646;28;20115;-73
2022/08/24 11:20:36;;;;;;;9.30;3.90;;;;;;;;;;5036967;28;20055;-79
2022/08/24 11:23:06;;;;;;;11.40;3.95;;;;;;;;;;5019693;28;20057;-72
2022/08/24 11:25:34;;;;;;;13.02;4.00;;;;;;;;;;5035382;28;20060;-81
2022/08/24 11:28:22;;;;;;;10.27;4.45;;;;;;;;;;5035905;28;20085;-79
2022/08/24 11:30:48;;;;;;;11.43;3.92;;;;;;;;;;5037137;28;20057;-79
2022/08/24 11:33:29;;;;;;;14.38;4.55;;;;;;;;;;5036590;28;20121;-84
2022/08/24 11:35:56;;;;;;;9.85;4.00;;;;;;;;;;5037008;28;20417;-83
2022/08/24 11:38:33;;;;;;;9.50;4.30;;;;;;;;;;5036377;28;20438;-85
2022/08/24 11:41:03;;;;;;;11.00;4.03;;;;;;;;;;5036819;28;20134;-75
2022/08/24 11:43:35;;;;;;;12.27;3.85;;;;;;;;;;5036246;28;20474;-75
2022/08/24 11:46:17;;;;;;;10.18;3.95;;;;;;;;;;5018290;28;20052;-75
2022/08/24 11:48:49;;;;;;;12.07;3.83;;;;;;;;;;5018737;28;20131;-77
2022/08/24 11:51:15;;;;;;;11.35;4.15;;;;;;;;;;5017781;28;20064;-77
2022/08/24 11:53:41;;;;;;;12.07;3.58;;;;;;;;;;5035929;28;20474;-77
2022/08/24 11:56:17;;;;;;;9.68;3.38;;;;;;;;;;5036486;28;20123;-78
2022/08/24 11:58:43;;;;;;;;;;;;;;;;;;5036394;28;20493;-81
2022/08/24 12:01:28;;;;;;;8.43;3.53;;;;;;;;;;5036163;28;19947;-81
2022/08/24 12:03:54;;;;;;;11.75;3.55;;;;;;;;;;5036068;28;20046;-77
2022/08/24 12:06:39;;;;;;;11.23;3.72;;;;;;;;;;5019077;28;20369;-80
2022/08/24 12:09:11;;;;;;;8.38;3.20;;;;;;;;;;5018211;28;20046;-76
2022/08/24 12:11:56;;;;;;;9.20;3.08;;;;;;;;;;5019063;28;20139;-79
2022/08/24 12:14:22;;;;;;;9.32;3.40;;;;;;;;;;5035931;28;20041;-78
2022/08/24 12:16:52;;;;;;;9.15;3.65;;;;;;;;;;5035642;28;20136;-77
2022/08/24 12:19:18;;;;;;;10.98;3.47;;;;;;;;;;5035409;28;20053;-78
2022/08/24 12:21:46;;;;;;;8.65;3.33;;;;;;;;;;5035373;28;20050;-81
2022/08/24 12:24:33;;;;;;;8.35;3.35;;;;;;;;;;5017732;28;20393;-82
2022/08/24 12:27:11;;;;;;;9.38;3.40;;;;;;;;;;5018065;28;20107;-76
2022/08/24 12:29:40;;;;;;;10.07;3.30;;;;;;;;;;5035606;28;20111;-78
2022/08/24 12:32:09;;;;;;;9.88;3.17;;;;;;;;;;5035151;28;20046;-81
2022/08/24 12:34:42;;;;;;;9.73;3.95;;;;;;;;;;5035321;28;20053;-81
2022/08/24 12:37:23;;;;;;;9.68;3.30;;;;;;;;;;5035858;28;20133;-78
2022/08/24 12:39:52;;;;;;;12.98;3.38;;;;;;;;;;5035557;28;20045;-80
2022/08/24 12:42:21;;;;;;;9.57;3.30;;;;;;;;;;5035712;28;20077;-81
2022/08/24 12:44:50;;;;;;;10.85;3.40;;;;;;;;;;5017970;28;20049;-81
2022/08/24 12:47:22;;;;;;;10.07;3.40;;;;;;;;;;5035179;28;20049;-82
2022/08/24 12:49:52;;;;;;;11.18;3.22;;;;;;;;;;5034921;28;20053;-81
2022/08/24 12:52:37;;;;;;;11.38;3.55;;;;;;;;;;5016980;28;20053;-74
2022/08/24 12:55:06;;;;;;;11.73;3.40;;;;;;;;;;5035050;28;20081;-77
2022/08/24 12:57:37;;;;;;;11.90;3.20;;;;;;;;;;5034536;28;20053;-77
2022/08/24 13:00:15;;;;;;;9.80;3.45;;;;;;;;;;5034438;28;20046;-80
2022/08/24 13:02:53;;;;;;;8.88;3.40;;;;;;;;;;5034928;28;20099;-78
2022/08/24 13:05:20;;;;;;;8.87;3.20;;;;;;;;;;5017645;28;20045;-76
2022/08/24 13:07:48;;;;;;;13.68;3.50;;;;;;;;;;5034950;28;20280;-75
2022/08/24 13:10:24;;;;;;;10.60;3.38;;;;;;;;;;5016170;28;20049;-79
2022/08/24 13:12:52;;;;;;;8.40;3.00;;;;;;;;;;5017463;28;20049;-76
2022/08/24 13:15:29;;;;;;;9.95;3.10;;;;;;;;;;5034142;28;20061;-81
2022/08/24 13:18:00;;;;;;;9.93;3.67;;;;;;;;;;5034725;28;20138;-79
2022/08/24 13:20:49;;;;;;;9.25;3.63;;;;;;;;;;5034338;28;20144;-83
2022/08/24 13:23:20;;;;;;;10.20;3.75;;;;;;;;;;5015768;28;20048;-84
2022/08/24 13:26:04;;;;;;;10.13;3.40;;;;;;;;;;5033331;28;20489;-83
2022/08/24 13:28:35;;;;;;;9.20;3.40;;;;;;;;;;5033655;28;20056;-75
2022/08/24 13:31:01;;;;;;;9.10;3.42;;;;;;;;;;5034835;28;20062;-74
2022/08/24 13:33:40;;;;;;;9.32;3.40;;;;;;;;;;5016209;28;20095;-79
2022/08/24 13:36:33;;;;;;;10.10;3.35;;;;;;;;;;5032725;28;20136;-79
2022/08/24 13:39:03;;;;;;;9.13;3.58;;;;;;;;;;5016312;28;20048;-82
2022/08/24 13:41:41;;;;;;;9.60;3.08;;;;;;;;;;5016889;28;20057;-79
2022/08/24 13:44:11;;;;;;;9.32;3.28;;;;;;;;;;5016328;28;20142;-78
2022/08/24 13:46:45;;;;;;;8.30;2.80;;;;;;;;;;5016197;28;20053;-78
2022/08/24 13:49:14;;;;;;;8.68;3.00;;;;;;;;;;5034165;28;20053;-77
2022/08/24 13:51:59;;;;;;;9.23;2.97;;;;;;;;;;5034215;28;20128;-83
2022/08/24 13:54:35;;;;;;;11.10;3.45;;;;;;;;;;5033728;28;20461;-81
2022/08/24 13:57:23;;;;;;;13.57;3.17;;;;;;;;;;5033999;28;20085;-74
2022/08/24 13:59:55;;;;;;;11.27;3.83;;;;;;;;;;5033955;28;20099;-79
2022/08/24 14:02:24;;;;;;;9.68;3.90;;;;;;;;;;5016781;28;20081;-80
2022/08/24 14:05:02;;;;;;;14.43;4.10;;;;;;;;;;5034166;28;20093;-80
2022/08/24 14:07:49;;;;;;;10.00;4.07;;;;;;;;;;5033353;28;20050;-81
2022/08/24 14:10:23;;;;;;;13.15;3.90;;;;;;;;;;5033266;28;20065;-79
2022/08/24 14:13:08;;;;;;;9.63;3.92;;;;;;;;;;5015886;28;20068;-76
2022/08/24 14:15:44;;;;;;;10.18;3.88;;;;;;;;;;5033243;28;20045;-80
2022/08/24 14:18:26;;;;;;;11.00;3.92;;;;;;;;;;5032674;28;20558;-78
2022/08/24 14:21:09;;;;;;;11.07;4.05;;;;;;;;;;5034293;28;20108;-82
2022/08/24 14:23:55;;;;;;;10.27;4.00;;;;;;;;;;5032787;28;20137;-83
2022/08/24 14:26:33;;;;;;;12.20;3.78;;;;;;;;;;5032799;28;20080;-81
2022/08/24 14:29:14;;;;;;;8.60;3.42;;;;;;;;;;5032675;28;20157;-82
2022/08/24 14:31:41;;;;;;;10.82;3.70;;;;;;;;;;5015806;28;20061;-78
2022/08/24 14:34:24;;;;;;;12.52;3.55;;;;;;;;;;5032669;28;20053;-78
2022/08/24 14:36:53;;;;;;;12.27;3.80;;;;;;;;;;5033523;28;20489;-77
2022/08/24 14:39:38;;;;;;;8.70;3.70;;;;;;;;;;5033190;28;20131;-81
2022/08/24 14:42:20;;;;;;;10.32;4.25;;;;;;;;;;5033109;28;20099;-82
2022/08/24 14:45:02;;;;;;;11.20;4.82;;;;;;;;;;5033085;28;20050;-81
2022/08/24 14:47:34;;;;;;;11.13;4.78;;;;;;;;;;5033185;28;20045;-79
2022/08/24 14:50:14;;;;;;;11.55;4.82;;;;;;;;;;5033012;28;20053;-83
2022/08/24 14:52:50;;;;;;;12.30;4.70;;;;;;;;;;5032830;28;20207;-77
2022/08/24 14:55:16;;;;;;;15.27;4.60;;;;;;;;;;5032924;28;20057;-81
2022/08/24 14:57:42;;;;;;;12.15;4.53;;;;;;;;;;5033712;28;20057;-81
2022/08/24 15:00:12;;;;;;;10.57;4.30;;;;;;;;;;5015312;28;20152;-79
2022/08/24 15:02:41;;;;;;;11.05;4.60;;;;;;;;;;5015582;28;20095;-82
2022/08/24 15:05:19;;;;;;;13.05;5.15;;;;;;;;;;5033008;28;20050;-82